Time;durP1;ratioP1;P1;durP2;ratioP2;P2;SDS_P1;SDS_P2;PMS_P1;PMS_P2;Temp;Humidity;BMP_temperature;BMP_pressure;BME280_temperature;BME280_humidity;BME280_pressure;Samples;Min_cycle;Max_cycle;Signal;HPM_P1;HPM_P2
2023/12/17 00:01:06;;;;;;;15.30;6.97;;;;;;;9.60;93.51;102930.16;5066885;28;20471;-65
2023/12/17 00:03:31;;;;;;;19.40;7.40;;;;;;;9.63;93.37;102933.00;5067009;28;20553;-65
2023/12/17 00:05:57;;;;;;;16.37;7.17;;;;;;;9.59;93.52;102930.94;5066908;28;20375;-64
2023/12/17 00:08:23;;;;;;;17.00;7.50;;;;;;;9.63;93.45;102943.56;5065386;28;20377;-64
2023/12/17 00:10:52;;;;;;;17.73;7.63;;;;;;;9.65;93.43;102948.97;5066356;28;20025;-64
2023/12/17 00:13:18;;;;;;;18.27;6.53;;;;;;;9.64;93.59;102948.06;5066637;28;20037;-64
2023/12/17 00:15:44;;;;;;;17.85;7.00;;;;;;;9.65;93.48;102963.09;5066759;28;20024;-65
2023/12/17 00:18:11;;;;;;;16.45;7.05;;;;;;;9.65;93.52;102960.47;5066437;28;20499;-64
2023/12/17 00:20:36;;;;;;;18.80;7.07;;;;;;;9.66;93.32;102957.03;5065735;28;20094;-64
2023/12/17 00:23:04;;;;;;;15.97;7.57;;;;;;;9.68;93.46;102949.22;5066189;28;20048;-64
2023/12/17 00:25:29;;;;;;;15.55;7.00;;;;;;;9.64;93.52;102955.97;5057065;28;20076;-64
2023/12/17 00:27:55;;;;;;;15.87;7.23;;;;;;;9.70;93.30;102958.19;5052907;28;20057;-64
2023/12/17 00:30:20;;;;;;;20.67;8.17;;;;;;;9.70;93.13;102964.38;5052416;28;20507;-64
2023/12/17 00:32:45;;;;;;;16.97;7.00;;;;;;;9.69;93.23;102961.63;5052755;28;20037;-64
2023/12/17 00:35:11;;;;;;;14.33;6.50;;;;;;;9.70;93.13;102959.09;5052885;28;20568;-64
2023/12/17 00:37:36;;;;;;;14.47;6.57;;;;;;;9.71;93.19;102960.94;5052737;28;20295;-63
2023/12/17 00:40:02;;;;;;;15.50;7.00;;;;;;;9.73;93.15;102958.41;5052251;28;20116;-64
2023/12/17 00:42:27;;;;;;;16.90;6.50;;;;;;;9.70;93.31;102948.56;5052674;28;20090;-65
2023/12/17 00:44:53;;;;;;;17.47;7.00;;;;;;;9.69;93.38;102940.50;5052465;28;20057;-64
2023/12/17 00:47:18;;;;;;;16.90;6.70;;;;;;;9.69;93.60;102929.94;5052819;28;20159;-64
2023/12/17 00:49:43;;;;;;;20.07;7.37;;;;;;;9.69;93.60;102933.50;5051884;28;20045;-65
2023/12/17 00:52:09;;;;;;;13.47;6.20;;;;;;;9.70;93.61;102921.25;5052520;28;20124;-64
2023/12/17 00:54:34;;;;;;;16.37;7.17;;;;;;;9.68;93.61;102922.81;5052410;28;20041;-65
2023/12/17 00:56:59;;;;;;;14.80;6.20;;;;;;;9.67;93.71;102918.38;5052515;28;20378;-64
2023/12/17 00:59:25;;;;;;;16.73;7.27;;;;;;;9.68;93.77;102920.19;5051697;28;20090;-64
2023/12/17 01:01:51;;;;;;;16.83;6.50;;;;;;;9.68;93.81;102928.09;5052123;28;20120;-64
2023/12/17 01:04:16;;;;;;;13.82;6.00;;;;;;;9.69;93.93;102946.69;5050493;28;20053;-65
2023/12/17 01:06:42;;;;;;;18.10;6.80;;;;;;;9.69;94.03;102951.06;5051826;28;20050;-64
2023/12/17 01:09:07;;;;;;;14.30;6.53;;;;;;;9.70;93.91;102964.38;5048926;28;20055;-64
2023/12/17 01:11:32;;;;;;;16.75;6.47;;;;;;;9.71;93.96;102965.31;5051812;28;20037;-64
2023/12/17 01:13:58;;;;;;;17.50;6.87;;;;;;;9.73;93.94;102955.78;5051443;28;20132;-64
2023/12/17 01:16:23;;;;;;;15.67;7.20;;;;;;;9.76;93.66;102951.69;5052480;28;20041;-64
2023/12/17 01:18:49;;;;;;;13.57;6.73;;;;;;;9.76;93.52;102949.03;5051636;28;20139;-64
2023/12/17 01:21:14;;;;;;;13.43;6.00;;;;;;;9.74;93.60;102947.97;5053705;28;20037;-64
2023/12/17 01:23:39;;;;;;;15.88;6.50;;;;;;;9.74;93.76;102950.63;5052822;28;20484;-64
2023/12/17 01:26:05;;;;;;;15.10;6.57;;;;;;;9.75;93.73;102968.31;5052748;28;20041;-64
2023/12/17 01:28:30;;;;;;;17.23;6.80;;;;;;;9.76;93.63;102967.50;5051490;28;20110;-64
2023/12/17 01:30:56;;;;;;;16.60;7.63;;;;;;;9.75;93.56;102970.03;5051315;28;20072;-64
2023/12/17 01:33:21;;;;;;;15.67;6.40;;;;;;;9.75;93.70;102970.03;5051564;28;20116;-65
2023/12/17 01:35:46;;;;;;;13.93;6.13;;;;;;;9.76;93.75;102964.88;5051464;28;20279;-64
2023/12/17 01:38:12;;;;;;;18.20;6.93;;;;;;;9.77;93.59;102958.78;5050767;28;20033;-64
2023/12/17 01:40:39;;;;;;;16.77;7.03;;;;;;;9.78;93.66;102964.97;5051086;28;20162;-64
2023/12/17 01:43:07;;;;;;;18.77;7.13;;;;;;;9.80;93.42;102961.69;5051481;28;20025;-64
2023/12/17 01:45:32;;;;;;;17.95;7.43;;;;;;;9.79;93.44;102966.81;5051483;28;20043;-64
2023/12/17 01:47:58;;;;;;;19.50;7.17;;;;;;;9.79;93.80;102978.31;5051431;28;20135;-64
2023/12/17 01:50:24;;;;;;;14.50;7.40;;;;;;;9.80;93.59;102968.66;5050997;28;20040;-64
2023/12/17 01:52:49;;;;;;;15.63;7.05;;;;;;;9.79;93.78;102975.66;5051290;28;20448;-64
2023/12/17 01:55:15;;;;;;;14.50;6.57;;;;;;;9.81;93.72;102978.44;5051487;28;20045;-64
2023/12/17 01:57:40;;;;;;;17.63;8.35;;;;;;;9.82;93.55;102977.59;5050973;28;20111;-63
2023/12/17 02:00:07;;;;;;;17.60;6.93;;;;;;;9.83;93.50;102971.53;5049704;28;20048;-64
2023/12/17 02:02:32;;;;;;;20.83;7.70;;;;;;;9.82;93.68;102972.34;5051172;28;20404;-64
2023/12/17 02:04:58;;;;;;;17.97;8.20;;;;;;;9.80;93.69;102977.50;5049919;28;20086;-64
2023/12/17 02:07:23;;;;;;;19.50;7.60;;;;;;;9.79;94.01;102978.31;5051522;28;20575;-64
2023/12/17 02:09:48;;;;;;;14.70;7.13;;;;;;;9.80;93.92;102977.50;5050451;28;20049;-63
2023/12/17 02:12:28;;;;;;;15.20;7.13;;;;;;;9.84;93.81;102984.88;5050843;28;20512;-64
2023/12/17 02:14:53;;;;;;;16.00;6.15;;;;;;;9.83;93.84;102988.31;5050745;28;20037;-64
2023/12/17 02:17:30;;;;;;;16.63;8.10;;;;;;;9.84;94.01;102984.88;5049448;28;20040;-63
2023/12/17 02:19:55;;;;;;;16.52;7.35;;;;;;;9.83;93.94;102972.47;5050401;28;20629;-64
2023/12/17 02:22:22;;;;;;;18.27;7.50;;;;;;;9.81;94.08;102975.78;5050802;28;20067;-64
2023/12/17 02:24:49;;;;;;;19.45;8.02;;;;;;;9.82;94.18;102973.25;5050723;28;20095;-63
2023/12/17 02:27:22;;;;;;;15.85;6.55;;;;;;;9.81;94.34;102973.16;5051061;28;20226;-63
2023/12/17 02:29:49;;;;;;;16.40;7.23;;;;;;;9.80;94.46;102972.22;5050163;28;20126;-63
2023/12/17 02:32:15;;;;;;;14.50;6.35;;;;;;;9.80;94.68;102971.31;5050816;28;20516;-64
2023/12/17 02:34:40;;;;;;;17.40;7.35;;;;;;;9.79;94.75;102973.03;5050562;28;20481;-63
2023/12/17 02:37:06;;;;;;;17.77;7.97;;;;;;;9.80;94.79;102972.22;5050632;28;20036;-63
2023/12/17 02:39:31;;;;;;;17.10;7.97;;;;;;;9.83;94.61;102963.63;5049944;28;20045;-63
2023/12/17 02:41:58;;;;;;;14.17;6.83;;;;;;;9.82;94.60;102970.63;5050723;28;20572;-63
2023/12/17 02:44:23;;;;;;;16.00;6.75;;;;;;;9.81;94.84;102967.88;5050417;28;20032;-64
2023/12/17 02:46:49;;;;;;;16.17;7.03;;;;;;;9.82;94.86;102962.69;5050590;28;20043;-63
2023/12/17 02:49:14;;;;;;;17.83;6.97;;;;;;;9.83;95.14;102969.81;5049917;28;20040;-63
2023/12/17 02:51:39;;;;;;;20.47;6.83;;;;;;;9.82;95.05;102972.34;5050349;28;20048;-63
2023/12/17 02:54:05;;;;;;;17.57;7.17;;;;;;;9.84;94.92;102969.03;5050176;28;20195;-64
2023/12/17 02:56:30;;;;;;;16.80;6.97;;;;;;;9.84;94.75;102961.13;5050269;28;20033;-63
2023/12/17 02:58:56;;;;;;;14.37;6.60;;;;;;;9.85;95.00;102965.59;5049511;28;20044;-63
2023/12/17 03:01:21;;;;;;;15.05;6.75;;;;;;;9.84;95.04;102952.28;5050134;28;20529;-63
2023/12/17 03:03:46;;;;;;;13.80;6.80;;;;;;;9.83;95.15;102956.63;5050217;28;20044;-64
2023/12/17 03:06:12;;;;;;;17.20;6.60;;;;;;;9.84;95.37;102961.13;5050005;28;20428;-64
2023/12/17 03:08:38;;;;;;;20.87;6.67;;;;;;;9.84;95.30;102952.28;5048134;28;20108;-64
2023/12/17 03:11:03;;;;;;;14.07;5.60;;;;;;;9.84;95.46;102958.47;5050266;28;20064;-64
2023/12/17 03:13:29;;;;;;;17.37;7.23;;;;;;;9.85;95.28;102957.69;5049993;28;20045;-64
2023/12/17 03:18:08;;;;;;;19.23;6.90;;;;;;;9.88;95.33;102954.34;5108503;27;20359;-61
2023/12/17 03:20:34;;;;;;;17.80;6.97;;;;;;;9.88;95.28;102960.53;5108238;28;20040;-62
2023/12/17 03:22:59;;;;;;;16.45;6.75;;;;;;;9.87;95.23;102955.13;5108532;28;20043;-62
2023/12/17 03:25:26;;;;;;;17.00;7.20;;;;;;;9.86;95.11;102951.59;5107931;28;20578;-62
2023/12/17 03:27:51;;;;;;;14.77;7.03;;;;;;;9.86;95.61;102954.25;5107767;28;20052;-62
2023/12/17 03:30:16;;;;;;;15.13;6.17;;;;;;;9.87;95.57;102953.41;5107321;28;20103;-62
2023/12/17 03:32:42;;;;;;;15.03;6.40;;;;;;;9.87;95.45;102948.16;5107842;28;20047;-62
2023/12/17 03:35:07;;;;;;;15.80;6.87;;;;;;;9.86;95.52;102946.34;5107636;28;20122;-62
2023/12/17 03:37:32;;;;;;;16.57;7.17;;;;;;;9.85;95.63;102949.75;5107690;28;20039;-62
2023/12/17 03:39:58;;;;;;;15.25;6.60;;;;;;;9.85;95.75;102948.84;5107544;28;20036;-65
2023/12/17 03:42:23;;;;;;;15.27;6.50;;;;;;;9.86;95.88;102954.25;5107960;28;20119;-64
2023/12/17 03:44:48;;;;;;;15.50;7.17;;;;;;;9.87;96.00;102952.50;5109512;28;20130;-64
2023/12/17 03:47:14;;;;;;;13.87;6.20;;;;;;;9.86;96.13;102959.53;5107890;28;20035;-65
2023/12/17 03:49:39;;;;;;;17.42;6.85;;;;;;;9.86;95.98;102946.34;5095713;28;20609;-64
2023/12/17 03:52:06;;;;;;;15.33;7.30;;;;;;;9.87;96.15;102953.41;5102104;28;20103;-64
2023/12/17 03:54:31;;;;;;;15.43;6.72;;;;;;;9.85;96.10;102955.03;5107541;28;20048;-65
2023/12/17 03:56:57;;;;;;;16.07;7.20;;;;;;;9.83;96.27;102954.00;5107777;28;20055;-64
2023/12/17 03:59:23;;;;;;;15.95;7.10;;;;;;;9.86;96.38;102958.59;5109693;28;20556;-65
2023/12/17 04:01:48;;;;;;;15.03;6.60;;;;;;;9.85;96.43;102956.75;5128146;27;20137;-62
2023/12/17 04:04:14;;;;;;;17.17;7.27;;;;;;;9.83;96.84;102955.69;5107668;27;20041;-62
2023/12/17 04:06:42;;;;;;;15.67;6.93;;;;;;;9.83;96.88;102964.53;5087043;28;20081;-67
2023/12/17 04:09:08;;;;;;;14.38;6.47;;;;;;;9.82;96.97;102954.78;5087855;28;20119;-65
2023/12/17 04:11:33;;;;;;;16.50;6.80;;;;;;;9.83;97.01;102955.69;5100228;28;20085;-65
2023/12/17 04:13:58;;;;;;;18.20;6.70;;;;;;;9.80;96.99;102951.13;5107388;28;20036;-65
2023/12/17 04:16:24;;;;;;;15.33;6.50;;;;;;;9.81;97.11;102952.03;5107545;28;20491;-65
2023/12/17 04:18:49;;;;;;;14.70;6.90;;;;;;;9.78;97.11;102952.69;5106412;27;20092;-64
2023/12/17 04:21:14;;;;;;;17.20;6.53;;;;;;;9.76;97.19;102948.13;5107102;27;20395;-65
2023/12/17 04:23:40;;;;;;;15.73;6.93;;;;;;;9.75;97.36;102946.28;5106897;28;20296;-65
2023/12/17 04:26:05;;;;;;;15.40;6.50;;;;;;;9.75;97.47;102943.63;5107141;27;20035;-65
2023/12/17 04:28:31;;;;;;;12.63;6.00;;;;;;;9.74;97.58;102947.97;5098578;28;20039;-64
2023/12/17 04:30:56;;;;;;;14.63;6.83;;;;;;;9.72;97.39;102952.22;5093052;28;20514;-65
2023/12/17 04:33:21;;;;;;;17.63;6.10;;;;;;;9.69;97.60;102949.34;5093751;28;20127;-65
2023/12/17 04:35:47;;;;;;;15.30;6.50;;;;;;;9.68;97.76;102946.56;5095716;28;20628;-65
2023/12/17 04:38:14;;;;;;;13.83;6.20;;;;;;;9.67;97.74;102945.66;5094644;28;20119;-65
2023/12/17 04:40:39;;;;;;;14.35;6.97;;;;;;;9.65;97.57;102939.34;5092908;28;20043;-65
2023/12/17 04:43:05;;;;;;;14.05;5.72;;;;;;;9.65;97.77;102949.91;5093137;28;20036;-65
2023/12/17 04:45:30;;;;;;;14.43;5.50;;;;;;;9.63;97.84;102940.94;5092679;28;20071;-63
2023/12/17 04:47:56;;;;;;;12.83;6.10;;;;;;;9.62;97.97;102933.81;5087750;28;20057;-63
2023/12/17 04:50:22;;;;;;;14.05;5.97;;;;;;;9.63;97.96;102933.00;5075678;28;20060;-64
2023/12/17 04:52:47;;;;;;;17.83;6.77;;;;;;;9.61;97.92;102937.28;5072327;28;20098;-64
2023/12/17 04:55:12;;;;;;;14.07;6.03;;;;;;;9.64;97.83;102936.56;5072242;28;20123;-64
2023/12/17 04:57:38;;;;;;;15.93;6.23;;;;;;;9.64;97.77;102937.50;5071636;28;20038;-65
2023/12/17 05:00:05;;;;;;;13.33;6.23;;;;;;;9.64;97.57;102932.22;5085689;28;20032;-64
2023/12/17 05:02:30;;;;;;;13.33;5.63;;;;;;;9.63;97.92;102927.72;5091757;28;20281;-63
2023/12/17 05:04:56;;;;;;;13.40;5.90;;;;;;;9.64;97.48;102924.31;5085462;28;20040;-64
2023/12/17 05:07:21;;;;;;;15.40;6.67;;;;;;;9.61;97.32;102934.63;5072007;28;20283;-64
2023/12/17 05:09:46;;;;;;;15.07;6.23;;;;;;;9.60;97.61;102930.16;5071818;28;20116;-63
2023/12/17 05:12:12;;;;;;;15.83;7.37;;;;;;;9.60;97.63;102932.78;5077037;28;20571;-65
2023/12/17 05:14:37;;;;;;;14.97;6.47;;;;;;;9.62;97.48;102930.28;5092244;28;20120;-64
2023/12/17 05:17:03;;;;;;;15.50;5.63;;;;;;;9.62;97.48;102927.63;5098636;28;20480;-64
2023/12/17 05:19:28;;;;;;;14.93;5.83;;;;;;;9.61;97.36;102924.06;5091964;28;20294;-64
2023/12/17 05:21:53;;;;;;;15.97;7.13;;;;;;;9.61;97.53;102926.72;5084220;28;20094;-64
2023/12/17 05:24:19;;;;;;;15.33;6.43;;;;;;;9.63;97.63;102924.19;5071849;28;20112;-64
2023/12/17 05:26:44;;;;;;;14.80;6.17;;;;;;;9.62;97.78;102922.38;5071707;28;20107;-65
2023/12/17 05:29:10;;;;;;;11.98;5.43;;;;;;;9.62;97.72;102925.88;5067112;28;20028;-64
2023/12/17 05:33:57;;;;;;;15.13;6.40;;;;;;;9.64;97.69;102929.59;5108411;27;20425;-65
2023/12/17 05:36:23;;;;;;;16.35;6.13;;;;;;;9.64;97.54;102928.66;5108360;28;20399;-64
2023/12/17 05:38:49;;;;;;;13.93;6.20;;;;;;;9.64;97.67;102921.66;5106920;28;20118;-64
2023/12/17 05:41:14;;;;;;;13.75;5.93;;;;;;;9.63;97.79;102927.72;5107630;28;20040;-64
2023/12/17 05:43:40;;;;;;;12.97;5.37;;;;;;;9.64;97.86;102923.38;5094746;28;20036;-63
2023/12/17 05:46:05;;;;;;;12.77;5.83;;;;;;;9.63;97.81;102924.19;5090671;28;20036;-63
2023/12/17 05:48:31;;;;;;;12.80;5.97;;;;;;;9.65;97.96;102934.06;5086019;28;20032;-66
2023/12/17 05:50:56;;;;;;;15.40;6.30;;;;;;;9.64;97.97;102933.94;5095378;28;20094;-64
2023/12/17 05:55:34;;;;;;;13.98;5.00;;;;;;;9.65;98.06;102943.69;5067286;28;20362;-62
2023/12/17 05:57:59;;;;;;;17.50;6.80;;;;;;;9.64;97.89;102940.13;5067586;28;20067;-65
2023/12/17 06:00:25;;;;;;;14.90;5.63;;;;;;;9.67;97.90;102936.84;5062628;28;20150;-62
2023/12/17 06:02:50;;;;;;;13.33;5.50;;;;;;;9.66;97.72;102933.28;5067274;28;20040;-62
2023/12/17 06:05:16;;;;;;;12.80;5.83;;;;;;;9.67;97.72;102934.19;5066319;28;20123;-63
2023/12/17 06:07:41;;;;;;;12.43;5.37;;;;;;;9.69;97.87;102944.06;5067134;28;20108;-63
2023/12/17 06:10:07;;;;;;;15.53;7.17;;;;;;;9.68;97.85;102936.94;5066955;28;20367;-63
2023/12/17 06:12:33;;;;;;;13.43;6.65;;;;;;;9.69;97.91;102936.16;5067362;28;20048;-62
2023/12/17 06:14:58;;;;;;;14.30;6.03;;;;;;;9.69;97.66;102936.16;5067233;28;20037;-64
2023/12/17 06:17:24;;;;;;;17.10;5.93;;;;;;;9.71;97.62;102934.56;5066695;28;20124;-64
2023/12/17 06:19:49;;;;;;;15.67;5.53;;;;;;;9.71;97.49;102942.47;5056556;28;20044;-63
2023/12/17 06:22:16;;;;;;;15.63;5.70;;;;;;;9.72;97.42;102936.38;5046426;28;20057;-64
2023/12/17 06:24:41;;;;;;;14.43;6.03;;;;;;;9.71;97.62;102929.28;5046901;28;20385;-66
2023/12/17 06:27:15;;;;;;;14.85;5.43;;;;;;;9.71;97.62;102933.63;5046793;28;20429;-63
2023/12/17 06:29:40;;;;;;;14.05;6.55;;;;;;;9.71;97.36;102924.00;5046042;28;20475;-63
2023/12/17 06:32:07;;;;;;;16.83;5.67;;;;;;;9.73;97.15;102918.81;5047000;28;20045;-63
2023/12/17 06:34:33;;;;;;;13.10;6.07;;;;;;;9.73;97.03;102930.31;5046404;28;20409;-63
2023/12/17 06:36:58;;;;;;;15.03;5.93;;;;;;;9.72;96.99;102930.22;5046498;28;20049;-63
2023/12/17 06:39:24;;;;;;;12.87;5.30;;;;;;;9.74;96.79;102934.78;5046366;28;20033;-63
2023/12/17 06:41:49;;;;;;;13.75;5.75;;;;;;;9.74;96.85;102928.59;5047502;28;20140;-63
2023/12/17 06:44:16;;;;;;;14.33;6.03;;;;;;;9.75;96.70;102944.56;5047244;28;20034;-63
2023/12/17 06:46:41;;;;;;;12.35;5.38;;;;;;;9.76;96.64;102949.03;5046760;28;20417;-62
2023/12/17 06:49:06;;;;;;;14.37;5.40;;;;;;;9.77;96.41;102949.94;5045974;28;20045;-63
2023/12/17 06:51:32;;;;;;;11.63;5.30;;;;;;;9.76;96.45;102949.03;5046784;28;20104;-64
2023/12/17 06:53:57;;;;;;;13.77;5.37;;;;;;;9.76;96.41;102956.97;5045710;28;20041;-64
2023/12/17 06:56:22;;;;;;;15.07;5.90;;;;;;;9.77;96.57;102957.84;5049241;28;20121;-63
2023/12/17 06:58:48;;;;;;;10.80;5.00;;;;;;;9.78;96.51;102962.34;5046117;28;20041;-64
2023/12/17 07:01:14;;;;;;;12.07;4.93;;;;;;;9.80;96.43;102964.31;5086875;28;20038;-64
2023/12/17 07:03:40;;;;;;;10.43;5.07;;;;;;;9.78;96.48;102955.34;5048813;28;20108;-63
2023/12/17 07:06:11;;;;;;;10.63;5.25;;;;;;;9.78;96.59;102959.69;5038097;28;20045;-64
2023/12/17 07:08:37;;;;;;;10.65;4.47;;;;;;;9.74;96.53;102958.53;5032417;28;20041;-63
2023/12/17 07:11:02;;;;;;;11.10;4.87;;;;;;;9.77;96.69;102956.13;5032823;28;20030;-63
2023/12/17 07:13:28;;;;;;;12.73;5.15;;;;;;;9.79;96.72;102964.19;5040869;28;20632;-63
2023/12/17 07:15:53;;;;;;;10.97;4.70;;;;;;;9.78;96.74;102971.19;5046227;28;20041;-62
2023/12/17 07:18:19;;;;;;;10.87;4.70;;;;;;;9.79;96.53;102956.25;5052196;28;20037;-63
2023/12/17 07:20:44;;;;;;;10.73;4.30;;;;;;;9.80;96.62;102951.13;5037477;28;20033;-63
2023/12/17 07:23:10;;;;;;;10.30;4.13;;;;;;;9.81;96.28;102946.75;5032370;28;20043;-63
2023/12/17 07:25:35;;;;;;;12.47;5.70;;;;;;;9.81;96.09;102944.13;5031631;28;20513;-63
2023/12/17 07:28:01;;;;;;;12.63;4.77;;;;;;;9.83;96.00;102946.06;5040953;28;20383;-63
2023/12/17 07:30:26;;;;;;;10.37;4.67;;;;;;;9.83;95.80;102938.16;5051508;28;20398;-63
2023/12/17 07:32:51;;;;;;;11.47;4.53;;;;;;;9.83;95.68;102930.22;5051674;28;20060;-63
2023/12/17 07:35:17;;;;;;;12.27;5.13;;;;;;;9.85;95.65;102939.22;5052009;28;20037;-63
2023/12/17 07:37:42;;;;;;;11.93;5.13;;;;;;;9.86;95.43;102943.69;5052519;28;20039;-63
2023/12/17 07:40:08;;;;;;;10.70;5.27;;;;;;;9.86;95.24;102932.22;5051441;28;20036;-63
2023/12/17 07:42:33;;;;;;;11.40;4.80;;;;;;;9.85;95.13;102949.75;5051956;28;20473;-63
2023/12/17 07:44:59;;;;;;;11.20;4.90;;;;;;;9.87;95.11;102950.78;5049133;28;20063;-63
2023/12/17 07:47:24;;;;;;;10.23;4.60;;;;;;;9.88;94.83;102950.00;5050931;28;20083;-63
2023/12/17 07:49:49;;;;;;;10.70;4.20;;;;;;;9.91;94.54;102949.31;5055018;28;20037;-62
2023/12/17 07:52:15;;;;;;;12.20;4.20;;;;;;;9.91;94.19;102944.97;5059037;28;20029;-63
2023/12/17 07:54:40;;;;;;;15.83;4.53;;;;;;;9.91;94.06;102946.69;5057685;28;20060;-62
2023/12/17 07:57:05;;;;;;;10.57;4.23;;;;;;;9.91;94.11;102946.69;5056542;28;20488;-61
2023/12/17 07:59:31;;;;;;;8.15;3.75;;;;;;;9.93;93.88;102967.09;5052781;28;20098;-62
2023/12/17 08:01:56;;;;;;;10.47;4.17;;;;;;;9.92;93.63;102961.69;5051022;28;20471;-63
2023/12/17 08:04:21;;;;;;;9.30;4.13;;;;;;;9.95;93.56;102970.81;5051169;28;20021;-63
2023/12/17 08:06:47;;;;;;;9.97;4.60;;;;;;;9.94;93.44;102970.69;5043373;28;20182;-63
2023/12/17 08:09:12;;;;;;;10.37;4.30;;;;;;;9.94;93.48;102971.59;5057384;28;20033;-63
2023/12/17 08:11:38;;;;;;;9.57;4.07;;;;;;;9.96;93.39;102958.53;5047993;28;20033;-63
2023/12/17 08:14:03;;;;;;;9.77;4.07;;;;;;;9.98;93.21;102962.19;5051412;28;20041;-63
2023/12/17 08:16:30;;;;;;;10.67;4.27;;;;;;;10.00;92.89;102957.97;5049418;28;20049;-63
2023/12/17 08:18:55;;;;;;;9.70;3.83;;;;;;;10.01;92.79;102957.16;5048280;28;20116;-63
2023/12/17 08:21:20;;;;;;;10.67;3.87;;;;;;;10.03;92.51;102962.53;5050579;28;20037;-63
2023/12/17 08:23:46;;;;;;;8.47;3.80;;;;;;;10.07;92.42;102961.97;5051381;28;20033;-63
2023/12/17 08:26:11;;;;;;;8.90;3.63;;;;;;;10.10;91.73;102957.88;5051338;28;20112;-62
2023/12/17 08:28:36;;;;;;;9.27;4.20;;;;;;;10.11;91.44;102953.53;5036922;28;20110;-62
2023/12/17 08:31:08;;;;;;;9.97;3.67;;;;;;;10.10;91.47;102947.31;5033024;28;20120;-62
2023/12/17 08:33:34;;;;;;;11.77;3.42;;;;;;;10.14;91.30;102961.66;5058907;28;20170;-62
2023/12/17 08:35:59;;;;;;;8.43;3.53;;;;;;;10.18;91.00;102966.41;5058716;28;20040;-62
2023/12/17 08:38:24;;;;;;;8.15;3.67;;;;;;;10.21;90.55;102961.41;5053418;28;20037;-62
2023/12/17 08:40:50;;;;;;;9.70;4.07;;;;;;;10.23;90.15;102959.78;5053043;28;20166;-62
2023/12/17 08:43:15;;;;;;;9.43;3.43;;;;;;;10.24;89.79;102956.34;5050690;28;20028;-63
2023/12/17 08:45:41;;;;;;;8.83;3.20;;;;;;;10.27;89.54;102961.84;5050368;28;20044;-62
2023/12/17 08:48:06;;;;;;;9.23;3.80;;;;;;;10.29;89.35;102965.53;5041134;28;20083;-62
2023/12/17 08:50:31;;;;;;;8.35;3.42;;;;;;;10.29;89.03;102958.53;5046552;28;20033;-62
2023/12/17 08:52:57;;;;;;;8.57;3.90;;;;;;;10.34;88.44;102958.88;5057642;28;20036;-61
2023/12/17 08:55:23;;;;;;;8.80;3.73;;;;;;;10.34;88.31;102965.09;5056208;28;20039;-63
2023/12/17 08:57:48;;;;;;;8.73;3.70;;;;;;;10.37;87.55;102961.75;5050851;28;20033;-63
2023/12/17 09:00:16;;;;;;;8.07;3.50;;;;;;;10.39;87.10;102962.81;5052796;28;20064;-64
2023/12/17 09:02:42;;;;;;;8.13;3.60;;;;;;;10.41;86.70;102955.88;5049944;28;20408;-63
2023/12/17 09:05:08;;;;;;;8.83;3.57;;;;;;;10.43;86.72;102962.22;5050763;28;20107;-63
2023/12/17 09:07:34;;;;;;;8.63;3.63;;;;;;;10.45;86.48;102958.00;5051726;28;20112;-63
2023/12/17 09:09:59;;;;;;;8.05;3.05;;;;;;;10.47;86.08;102966.00;5049590;28;20112;-63
2023/12/17 09:12:24;;;;;;;8.27;3.60;;;;;;;10.50;85.70;102964.56;5053453;28;20032;-62
2023/12/17 09:14:50;;;;;;;8.93;3.50;;;;;;;10.52;85.64;102970.84;5052966;28;20033;-64
2023/12/17 09:17:15;;;;;;;6.38;2.58;;;;;;;10.56;85.36;102972.03;5049358;28;20060;-64
2023/12/17 09:19:44;;;;;;;9.47;3.30;;;;;;;10.57;85.04;102971.19;5055718;28;20094;-65
2023/12/17 09:22:10;;;;;;;9.38;3.97;;;;;;;10.57;84.88;102966.84;5054302;28;20028;-64
2023/12/17 09:24:35;;;;;;;8.03;3.27;;;;;;;10.58;85.00;102960.75;5056568;28;20680;-65
2023/12/17 09:27:03;;;;;;;7.80;3.33;;;;;;;10.61;84.84;102963.63;5053234;28;20025;-64
2023/12/17 09:29:28;;;;;;;7.88;3.25;;;;;;;10.64;84.77;102958.59;5048261;28;20036;-62
2023/12/17 09:31:56;;;;;;;6.70;2.80;;;;;;;10.65;84.64;102952.50;5050016;28;20036;-62
2023/12/17 09:34:22;;;;;;;7.53;3.10;;;;;;;10.68;84.54;102965.00;5049735;28;20366;-65
2023/12/17 09:36:47;;;;;;;7.80;2.80;;;;;;;10.67;84.58;102979.94;5050131;28;20036;-63
2023/12/17 09:39:12;;;;;;;7.40;3.07;;;;;;;10.65;84.79;102983.28;5054676;28;20095;-63
2023/12/17 09:41:40;;;;;;;7.13;3.17;;;;;;;10.64;84.86;102971.81;5049781;28;20512;-62
2023/12/17 09:44:06;;;;;;;9.57;3.23;;;;;;;10.66;84.97;102975.47;5046723;28;20029;-64
2023/12/17 09:46:31;;;;;;;7.32;2.90;;;;;;;10.65;84.83;102978.00;5053716;28;20031;-63
2023/12/17 09:49:00;;;;;;;6.90;2.70;;;;;;;10.66;84.66;102991.31;5050024;28;20035;-64
2023/12/17 09:51:27;;;;;;;9.10;3.17;;;;;;;10.66;84.49;102980.75;5049793;28;20024;-62
2023/12/17 09:53:57;;;;;;;6.47;2.67;;;;;;;10.65;84.80;102972.72;5057105;28;20033;-64
2023/12/17 09:56:23;;;;;;;9.45;3.53;;;;;;;10.63;84.49;102962.03;5049891;28;20032;-62
2023/12/17 09:58:49;;;;;;;8.20;3.23;;;;;;;10.64;84.03;102955.94;5047970;28;20033;-62
2023/12/17 10:01:15;;;;;;;7.50;3.10;;;;;;;10.67;84.12;102955.25;5061020;28;20396;-63
2023/12/17 10:03:40;;;;;;;8.43;3.47;;;;;;;10.70;83.99;102945.84;5041616;28;20025;-63
2023/12/17 10:06:06;;;;;;;10.93;2.93;;;;;;;10.71;83.73;102933.50;5059332;28;20524;-62
2023/12/17 10:08:33;;;;;;;8.48;2.85;;;;;;;10.73;83.28;102938.13;5053073;28;20044;-62
2023/12/17 10:10:59;;;;;;;6.35;2.50;;;;;;;10.73;83.22;102931.91;5049355;28;20071;-62
2023/12/17 10:13:24;;;;;;;8.07;3.47;;;;;;;10.74;83.06;102939.97;5051098;28;20064;-63
2023/12/17 10:15:53;;;;;;;7.57;3.13;;;;;;;10.72;83.07;102922.16;5049786;28;20056;-62
2023/12/17 10:18:20;;;;;;;8.73;3.15;;;;;;;10.72;82.97;102925.72;5040734;28;20072;-62
2023/12/17 10:20:46;;;;;;;7.70;3.28;;;;;;;10.71;82.76;102913.28;5052842;28;20064;-62
2023/12/17 10:23:12;;;;;;;7.88;2.55;;;;;;;10.74;83.11;102921.47;5049793;28;20127;-62
2023/12/17 10:25:39;;;;;;;7.35;3.08;;;;;;;10.77;83.04;102920.75;5049627;28;20037;-62
2023/12/17 10:28:04;;;;;;;9.83;3.37;;;;;;;10.79;83.02;102920.09;5044420;28;20029;-64
2023/12/17 10:30:32;;;;;;;7.43;2.97;;;;;;;10.80;82.70;102918.38;5048796;28;20048;-63
2023/12/17 10:33:00;;;;;;;9.33;3.27;;;;;;;10.79;82.46;102913.88;5040088;28;20048;-64
2023/12/17 10:35:26;;;;;;;8.48;3.10;;;;;;;10.79;82.66;102909.50;5049466;28;20037;-62
2023/12/17 10:37:57;;;;;;;9.75;2.83;;;;;;;10.79;82.46;102914.81;5047903;28;20552;-72
2023/12/17 10:40:24;;;;;;;8.18;2.85;;;;;;;10.79;82.58;102898.03;5040056;28;20374;-63
2023/12/17 10:42:51;;;;;;;6.80;2.80;;;;;;;10.78;82.75;102902.38;5033466;28;20040;-65
2023/12/17 10:45:19;;;;;;;7.67;3.23;;;;;;;10.79;82.34;102892.72;5033340;28;20040;-63
2023/12/17 10:47:45;;;;;;;7.55;2.88;;;;;;;10.80;82.33;102889.28;5033672;28;20141;-63
2023/12/17 10:50:11;;;;;;;6.80;3.05;;;;;;;10.82;81.89;102878.00;5032404;28;20124;-62
2023/12/17 10:52:39;;;;;;;7.43;3.05;;;;;;;10.83;81.78;102876.28;5033522;28;20128;-64
2023/12/17 10:55:05;;;;;;;7.93;3.00;;;;;;;10.87;81.50;102880.97;5033441;28;20033;-64
2023/12/17 10:57:34;;;;;;;10.10;2.67;;;;;;;10.88;81.39;102860.75;5033719;28;20033;-64
2023/12/17 11:00:01;;;;;;;10.13;3.60;;;;;;;10.89;80.93;102894.31;5051701;28;20068;-64
2023/12/17 11:02:27;;;;;;;7.55;2.65;;;;;;;10.90;80.61;102880.31;5073348;28;20177;-63
2023/12/17 11:04:56;;;;;;;9.23;3.20;;;;;;;10.94;80.71;102882.38;5073026;28;20124;-64
2023/12/17 11:07:22;;;;;;;7.57;2.47;;;;;;;10.98;80.29;102873.84;5072978;28;20538;-63
2023/12/17 11:09:48;;;;;;;7.70;2.92;;;;;;;11.02;80.33;102882.09;5072535;28;20048;-64
2023/12/17 11:12:16;;;;;;;7.97;3.03;;;;;;;11.06;80.30;102862.09;5073230;28;20512;-63
2023/12/17 11:14:44;;;;;;;6.95;2.67;;;;;;;11.08;80.19;102856.13;5072045;28;20409;-64
2023/12/17 11:17:14;;;;;;;8.43;3.40;;;;;;;11.10;79.71;102853.59;5073318;28;20036;-64
2023/12/17 11:20:00;;;;;;;6.60;2.92;;;;;;;11.15;79.64;102846.91;5072525;28;20766;-63
2023/12/17 11:22:26;;;;;;;7.67;3.00;;;;;;;11.21;79.22;102857.91;5072608;28;20028;-63
2023/12/17 11:24:54;;;;;;;6.20;2.90;;;;;;;11.21;79.10;102852.63;5073364;28;20477;-65